Carnival Valor — H3VR — position and weather

sailwx.info

Track history (hours):
 
Tides and Currents Weather Stations Pressure Air Temp Water Temp Dewpoint Dewpoint Depression Visibility Wind Speed Wind Dir Waves Ship Positions

Carnival Valor

Last reported at 2014-Oct-20 22:27 UTC. Time now 2014-Oct-21 00:46 UTC.
Position N 18°08' W 064°50'.

Type: Ship. MMSI: 354298000.

Date/timePositionNaut miles runAvg speedWind from/ knotsBaromVisibWave heightAir tempDewpointWater temp
2014-Oct-20 22:27N 18°08' W 064°50'70 1.5
2014-Oct-18 23:33N 18°03' W 063°37'1414.2
2014-Oct-18 22:33N 18°01' W 063°23'1614.5
2014-Oct-18 21:29N 18°00' W 063°06'3 2.9
2014-Oct-18 20:18N 18°01' W 063°03'0 0.0
2014-Oct-18 19:09N 18°01' W 063°03'0 0.0
2014-Oct-18 18:23N 18°01' W 063°03'0 0.0
2014-Oct-18 17:32N 18°01' W 063°03'0 0.0
2014-Oct-18 16:25N 18°01' W 063°03'0 0.0
2014-Oct-18 15:31N 18°01' W 063°03'0 0.0
2014-Oct-18 14:22N 18°01' W 063°03'0 0.0
2014-Oct-18 12:27N 18°01' W 063°03'0 0.0
2014-Oct-18 11:32N 18°01' W 063°03'1 1.1
2014-Oct-18 10:31N 18°00' W 063°04'10 8.9
2014-Oct-18 09:20N 18°01' W 063°15'8 9.9
2014-Oct-18 08:32N 18°04' W 063°23'1010.5
2014-Oct-18 07:32N 18°08' W 063°33'7 7.3
2014-Oct-18 06:33N 18°05' W 063°40'8 7.7
2014-Oct-18 05:32N 17°59' W 063°34'10 9.9
2014-Oct-18 04:33N 17°59' W 063°24'11 9.6
2014-Oct-18 03:25N 17°51' W 063°16'910.0
2014-Oct-18 02:29N 17°43' W 063°10'9 9.8
2014-Oct-18 01:32N 17°35' W 063°07'77 4.5
2014-Oct-17 08:23N 16°29' W 062°25'13315.8
2014-Oct-17 00:00N 14°30' W 061°24'   060 / 41011.010.8 1.028.020.929.0
2014-Oct-14 12:00N 14°48' W 063°48'16113.4 210 / 91012.010.8 1.028.022.429.0
2014-Oct-14 00:00N 17°00' W 065°24'125 2.5 030 / 291011.0 5.4 1.526.021.729.0
2014-Oct-11 23:03N 18°02' W 063°31'815.6
2014-Oct-11 22:32N 18°01' W 063°22'1515.1
2014-Oct-11 21:32N 17°60' W 063°06'3 0.8
2014-Oct-11 17:06N 18°01' W 063°03'0 0.0
2014-Oct-11 15:24N 18°01' W 063°03'0 0.0
2014-Oct-11 11:03N 18°01' W 063°03'4 4.6
2014-Oct-11 10:13N 18°00' W 063°07'9 8.6
2014-Oct-11 09:08N 18°01' W 063°16'10 9.7
2014-Oct-11 08:05N 18°05' W 063°26'6 9.9
2014-Oct-11 07:30N 18°07' W 063°32'7 8.0
2014-Oct-11 06:33N 18°06' W 063°40'16 8.2
2014-Oct-11 04:33N 17°59' W 063°24'11 9.9
2014-Oct-11 03:25N 17°50' W 063°16'12 9.8
2014-Oct-11 02:12N 17°41' W 063°09'11 9.6
2014-Oct-11 01:04N 17°30' W 063°06'  
Track history (hours):
 
Tides and Currents Weather Stations Pressure Air Temp Water Temp Dewpoint Dewpoint Depression Visibility Wind Speed Wind Dir Waves Ship Positions

Carnival Valor

Last reported at 2014-Oct-20 22:27 UTC. Time now 2014-Oct-21 00:46 UTC.
Position N 18°08' W 064°50'.

Type: Ship. MMSI: 354298000.

Date/timePositionNaut miles runAvg speedWind from/ knotsBaromVisibWave heightAir tempDewpointWater temp
2014-Oct-20 22:27N 18°08' W 064°50'70 1.5
2014-Oct-18 23:33N 18°03' W 063°37'1414.2
2014-Oct-18 22:33N 18°01' W 063°23'1614.5
2014-Oct-18 21:29N 18°00' W 063°06'3 2.9
2014-Oct-18 20:18N 18°01' W 063°03'0 0.0
2014-Oct-18 19:09N 18°01' W 063°03'0 0.0
2014-Oct-18 18:23N 18°01' W 063°03'0 0.0
2014-Oct-18 17:32N 18°01' W 063°03'0 0.0
2014-Oct-18 16:25N 18°01' W 063°03'0 0.0
2014-Oct-18 15:31N 18°01' W 063°03'0 0.0
2014-Oct-18 14:22N 18°01' W 063°03'0 0.0
2014-Oct-18 12:27N 18°01' W 063°03'0 0.0
2014-Oct-18 11:32N 18°01' W 063°03'1 1.1
2014-Oct-18 10:31N 18°00' W 063°04'10 8.9
2014-Oct-18 09:20N 18°01' W 063°15'8 9.9
2014-Oct-18 08:32N 18°04' W 063°23'1010.5
2014-Oct-18 07:32N 18°08' W 063°33'7 7.3
2014-Oct-18 06:33N 18°05' W 063°40'8 7.7
2014-Oct-18 05:32N 17°59' W 063°34'10 9.9
2014-Oct-18 04:33N 17°59' W 063°24'11 9.6
2014-Oct-18 03:25N 17°51' W 063°16'910.0
2014-Oct-18 02:29N 17°43' W 063°10'9 9.8
2014-Oct-18 01:32N 17°35' W 063°07'77 4.5
2014-Oct-17 08:23N 16°29' W 062°25'13315.8
2014-Oct-17 00:00N 14°30' W 061°24'   060 / 41011.010.8 1.028.020.929.0
2014-Oct-14 12:00N 14°48' W 063°48'16113.4 210 / 91012.010.8 1.028.022.429.0
2014-Oct-14 00:00N 17°00' W 065°24'125 2.5 030 / 291011.0 5.4 1.526.021.729.0
2014-Oct-11 23:03N 18°02' W 063°31'815.6
2014-Oct-11 22:32N 18°01' W 063°22'1515.1
2014-Oct-11 21:32N 17°60' W 063°06'3 0.8
2014-Oct-11 17:06N 18°01' W 063°03'0 0.0
2014-Oct-11 15:24N 18°01' W 063°03'0 0.0
2014-Oct-11 11:03N 18°01' W 063°03'4 4.6
2014-Oct-11 10:13N 18°00' W 063°07'9 8.6
2014-Oct-11 09:08N 18°01' W 063°16'10 9.7
2014-Oct-11 08:05N 18°05' W 063°26'6 9.9
2014-Oct-11 07:30N 18°07' W 063°32'7 8.0
2014-Oct-11 06:33N 18°06' W 063°40'16 8.2
2014-Oct-11 04:33N 17°59' W 063°24'11 9.9
2014-Oct-11 03:25N 17°50' W 063°16'12 9.8
2014-Oct-11 02:12N 17°41' W 063°09'11 9.6
2014-Oct-11 01:04N 17°30' W 063°06'  

Dump ship's entire track history